createdAt,value
2022-12-14T00:01:36.087Z,98506.47
2022-12-14T00:04:02.904Z,98501.31
2022-12-14T00:06:32.416Z,98502.16
2022-12-14T00:09:01.806Z,98496.16
2022-12-14T00:11:29.042Z,98506.44
2022-12-14T00:14:01.295Z,98508.16
2022-12-14T00:16:31.103Z,98506.44
2022-12-14T00:19:00.118Z,98506.44
2022-12-14T00:21:28.541Z,98509.00
2022-12-14T00:23:57.486Z,98504.72
2022-12-14T00:26:27.945Z,98509.84
2022-12-14T00:28:55.910Z,98518.44
2022-12-14T00:31:24.233Z,98507.28
2022-12-14T00:33:51.959Z,98511.53
2022-12-14T00:36:19.969Z,98511.56
2022-12-14T00:38:46.851Z,98509.81
2022-12-14T00:41:14.025Z,98503.81
2022-12-14T00:43:41.088Z,98508.13
2022-12-14T00:46:08.746Z,98508.97
2022-12-14T00:48:35.949Z,98512.38
2022-12-14T00:51:04.174Z,98514.97
2022-12-14T00:53:31.290Z,98514.97
2022-12-14T00:56:05.567Z,98520.13
2022-12-14T00:58:32.441Z,98514.09
2022-12-14T01:01:06.016Z,98514.94
2022-12-14T01:03:33.832Z,98525.28
2022-12-14T01:06:01.816Z,98515.78
2022-12-14T01:08:36.003Z,98515.81
2022-12-14T01:11:08.064Z,98514.94
2022-12-14T01:13:36.614Z,98518.38
2022-12-14T01:16:04.516Z,98513.22
2022-12-14T01:18:34.677Z,98511.50
2022-12-14T01:21:13.761Z,98506.34
2022-12-14T01:23:40.568Z,98507.22
2022-12-14T01:26:07.822Z,98503.78
2022-12-14T01:28:35.210Z,98503.78
2022-12-14T01:31:14.757Z,98504.66
2022-12-14T01:33:42.057Z,98494.38
2022-12-14T01:36:12.015Z,98490.91
2022-12-14T01:38:39.121Z,98490.94
2022-12-14T01:41:07.957Z,98490.94
2022-12-14T01:43:55.533Z,98484.94
2022-12-14T01:46:26.511Z,98489.25
2022-12-14T01:48:59.292Z,98484.97
2022-12-14T01:51:27.382Z,98482.38
2022-12-14T01:53:56.005Z,98486.69
2022-12-14T01:56:22.954Z,98486.69
2022-12-14T01:58:50.701Z,98484.09
2022-12-14T02:01:17.916Z,98482.41
2022-12-14T02:03:50.475Z,98482.38
2022-12-14T02:06:22.703Z,98488.38
2022-12-14T02:08:52.495Z,98476.38
2022-12-14T02:11:30.105Z,98488.38
2022-12-14T02:13:56.913Z,98486.66
2022-12-14T02:16:24.155Z,98478.09
2022-12-14T02:18:50.974Z,98484.06
2022-12-14T02:21:29.950Z,98489.25
2022-12-14T02:24:28.911Z,98478.94
2022-12-14T02:27:23.282Z,98484.94
2022-12-14T02:29:52.873Z,98486.66
2022-12-14T02:32:34.859Z,98495.28
2022-12-14T02:35:15.477Z,98491.00
2022-12-14T02:38:20.152Z,98484.97
2022-12-14T02:41:18.961Z,98494.44
2022-12-14T02:44:07.814Z,98499.59
2022-12-14T02:46:59.432Z,98495.28
2022-12-14T02:50:00.461Z,98495.31
2022-12-14T02:52:48.977Z,98491.84
2022-12-14T02:55:34.276Z,98495.28
2022-12-14T02:58:03.601Z,98485.84
2022-12-14T03:00:34.579Z,98482.41
2022-12-14T03:03:02.656Z,98484.13
2022-12-14T03:05:30.476Z,98485.88
2022-12-14T03:08:16.885Z,98487.56
2022-12-14T03:10:57.409Z,98484.13
2022-12-14T03:13:43.585Z,98484.97
2022-12-14T03:16:25.321Z,98482.41
2022-12-14T03:19:00.647Z,98484.13
2022-12-14T03:21:36.993Z,98477.25
2022-12-14T03:24:12.751Z,98478.97
2022-12-14T03:26:47.674Z,98465.22
2022-12-14T03:29:21.816Z,98467.78
2022-12-14T03:31:57.253Z,98472.91
2022-12-14T03:34:34.191Z,98478.84
2022-12-14T03:37:14.890Z,98473.63
2022-12-14T03:39:43.484Z,98476.13
2022-12-14T03:42:10.407Z,98475.13
2022-12-14T03:44:48.886Z,98478.44
2022-12-14T03:47:29.042Z,98484.31
2022-12-14T03:50:01.521Z,98476.44
2022-12-14T03:53:01.754Z,98485.72
2022-12-14T03:55:48.875Z,98492.34
2022-12-14T03:58:37.239Z,98487.81
2022-12-14T04:01:13.450Z,98481.63
2022-12-14T04:04:13.600Z,98487.31
2022-12-14T04:06:52.325Z,98489.59
2022-12-14T04:09:28.882Z,98487.69
2022-12-14T04:12:25.383Z,98491.72
2022-12-14T04:15:15.775Z,98491.50
2022-12-14T04:18:03.614Z,98489.38
2022-12-14T04:20:43.109Z,98491.50
2022-12-14T04:23:42.233Z,98493.75
2022-12-14T04:26:15.415Z,98497.78
2022-12-14T04:29:10.738Z,98492.50
2022-12-14T04:31:41.988Z,98494.88
2022-12-14T04:34:14.006Z,98487.88
2022-12-14T04:36:43.298Z,98488.63
2022-12-14T04:39:17.128Z,98493.53
2022-12-14T04:41:49.580Z,98492.34
2022-12-14T04:44:28.151Z,98493.72
2022-12-14T04:46:58.404Z,98489.25
2022-12-14T04:49:32.983Z,98489.88
2022-12-14T04:52:11.358Z,98478.59
2022-12-14T04:54:41.490Z,98487.00
2022-12-14T04:57:29.477Z,98487.75
2022-12-14T04:59:57.285Z,98483.38
2022-12-14T05:02:38.993Z,98485.03
2022-12-14T05:05:20.495Z,98485.69
2022-12-14T05:08:09.846Z,98480.28
2022-12-14T05:10:44.041Z,98491.09
2022-12-14T05:13:20.251Z,98490.94
2022-12-14T05:15:51.251Z,98491.56
2022-12-14T05:18:18.864Z,98503.41
2022-12-14T05:20:48.909Z,98508.44
2022-12-14T05:23:16.736Z,98510.84
2022-12-14T05:25:43.810Z,98500.53
2022-12-14T05:28:11.792Z,98507.19
2022-12-14T05:30:39.066Z,98512.31
2022-12-14T05:33:06.445Z,98513.75
2022-12-14T05:35:33.301Z,98507.66
2022-12-14T05:38:00.360Z,98505.91
2022-12-14T05:40:27.236Z,98499.78
2022-12-14T05:43:04.783Z,98502.19
2022-12-14T05:45:31.824Z,98502.09
2022-12-14T05:47:59.148Z,98509.63
2022-12-14T05:50:26.013Z,98501.84
2022-12-14T05:52:53.378Z,98502.44
2022-12-14T05:55:20.169Z,98508.19
2022-12-14T05:57:47.218Z,98499.50
2022-12-14T06:00:14.655Z,98496.03
2022-12-14T06:02:41.783Z,98488.34
2022-12-14T06:05:09.084Z,98484.81
2022-12-14T06:07:36.236Z,98485.72
2022-12-14T06:10:03.714Z,98492.47
2022-12-14T06:12:30.838Z,98499.91
2022-12-14T06:14:57.626Z,98488.78
2022-12-14T06:17:24.704Z,98497.16
2022-12-14T06:19:51.967Z,98485.19
2022-12-14T06:22:19.236Z,98496.09
2022-12-14T06:24:46.025Z,98501.06
2022-12-14T06:27:13.137Z,98502.63
2022-12-14T06:29:39.921Z,98498.38
2022-12-14T06:32:07.073Z,98499.19
2022-12-14T06:34:38.446Z,98494.97
2022-12-14T06:37:07.006Z,98490.75
2022-12-14T06:39:33.814Z,98491.72
2022-12-14T06:42:00.894Z,98496.84
2022-12-14T06:44:27.801Z,98485.97
2022-12-14T06:46:55.855Z,98482.69
2022-12-14T06:49:22.908Z,98483.75
2022-12-14T06:51:50.220Z,98484.78
2022-12-14T06:54:17.938Z,98494.47
2022-12-14T06:56:46.620Z,98483.69
2022-12-14T06:59:14.011Z,98484.03
2022-12-14T07:01:41.639Z,98486.09
2022-12-14T07:04:09.448Z,98482.06
2022-12-14T07:06:39.343Z,98483.19
2022-12-14T07:09:09.323Z,98476.63
2022-12-14T07:11:36.633Z,98475.22
2022-12-14T07:14:06.268Z,98476.41
2022-12-14T07:16:34.928Z,98473.28
2022-12-14T07:19:01.790Z,98473.66
2022-12-14T07:21:29.509Z,98473.97
2022-12-14T07:23:56.548Z,98465.59
2022-12-14T07:26:26.654Z,98465.94
2022-12-14T07:28:55.315Z,98469.66
2022-12-14T07:31:25.089Z,98462.28
2022-12-14T07:33:56.015Z,98459.38
2022-12-14T07:36:24.643Z,98457.13
2022-12-14T07:38:52.098Z,98465.78
2022-12-14T07:41:29.558Z,98477.78
2022-12-14T07:43:57.020Z,98474.56
2022-12-14T07:46:26.865Z,98484.06
2022-12-14T07:48:56.444Z,98489.16
2022-12-14T07:51:33.418Z,98483.22
2022-12-14T07:54:01.899Z,98480.81
2022-12-14T07:56:29.953Z,98475.00
2022-12-14T07:58:58.318Z,98475.28
2022-12-14T08:01:31.283Z,98481.63
2022-12-14T08:04:00.009Z,98473.38
2022-12-14T08:06:30.377Z,98465.16
2022-12-14T08:08:58.281Z,98457.78
2022-12-14T08:11:25.721Z,98452.00
2022-12-14T08:13:57.187Z,98460.81
2022-12-14T08:16:25.632Z,98456.88
2022-12-14T08:18:54.071Z,98454.63
2022-12-14T08:21:22.547Z,98455.78
2022-12-14T08:23:50.913Z,98457.81
2022-12-14T08:26:19.115Z,98460.63
2022-12-14T08:28:47.562Z,98457.31
2022-12-14T08:31:15.928Z,98443.63
2022-12-14T08:33:43.868Z,98445.38
2022-12-14T08:36:25.477Z,98448.00
2022-12-14T08:39:00.423Z,98452.31
2022-12-14T08:41:28.905Z,98439.44
2022-12-14T08:43:58.174Z,98448.94
2022-12-14T08:46:27.410Z,98445.53
2022-12-14T08:48:55.009Z,98448.97
2022-12-14T08:51:23.412Z,98437.84
2022-12-14T08:53:50.462Z,98430.13
2022-12-14T08:56:19.788Z,98423.28
2022-12-14T08:58:46.814Z,98425.00
2022-12-14T09:01:16.742Z,98422.47
2022-12-14T09:03:45.332Z,98417.28
2022-12-14T09:06:24.476Z,98408.69
2022-12-14T09:08:51.255Z,98405.22
2022-12-14T09:11:21.687Z,98398.28
2022-12-14T09:13:48.689Z,98402.50
2022-12-14T09:16:21.784Z,98392.94
2022-12-14T09:18:49.523Z,98390.22
2022-12-14T09:21:18.098Z,98385.91
2022-12-14T09:23:45.663Z,98393.63
2022-12-14T09:26:18.778Z,98401.34
2022-12-14T09:28:50.683Z,98393.47
2022-12-14T09:31:20.077Z,98398.66
2022-12-14T09:33:46.917Z,98384.91
2022-12-14T09:36:19.879Z,98392.63
2022-12-14T09:38:51.579Z,98381.34
2022-12-14T09:41:35.050Z,98389.06
2022-12-14T09:44:24.970Z,98374.41
2022-12-14T09:47:01.354Z,98378.59
2022-12-14T09:49:34.618Z,98377.56
2022-12-14T09:52:05.422Z,98373.09
2022-12-14T09:54:38.732Z,98372.09
2022-12-14T09:57:18.934Z,98377.94
2022-12-14T09:59:45.696Z,98369.94
2022-12-14T10:02:34.396Z,98378.38
2022-12-14T10:05:17.146Z,98379.84
2022-12-14T10:08:03.002Z,98370.00
2022-12-14T10:10:44.067Z,98363.66
2022-12-14T10:13:49.765Z,98366.69
2022-12-14T10:16:27.749Z,98349.78
2022-12-14T10:19:12.506Z,98349.50
2022-12-14T10:22:16.525Z,98349.25
2022-12-14T10:24:51.070Z,98345.97
2022-12-14T10:27:22.893Z,98342.81
2022-12-14T10:29:59.765Z,98328.66
2022-12-14T10:32:37.774Z,98322.69
2022-12-14T10:35:56.988Z,98313.91
2022-12-14T10:38:56.740Z,98318.09
2022-12-14T10:41:23.813Z,98314.44
2022-12-14T10:44:03.487Z,98319.59
2022-12-14T10:46:58.056Z,98321.44
2022-12-14T10:49:32.610Z,98314.59
2022-12-14T10:52:12.400Z,98312.16
2022-12-14T10:54:46.669Z,98307.13
2022-12-14T10:57:27.228Z,98310.72
2022-12-14T11:00:09.826Z,98296.97
2022-12-14T11:02:42.710Z,98291.88
2022-12-14T11:05:36.608Z,98297.13
2022-12-14T11:08:09.011Z,98300.78
2022-12-14T11:10:39.528Z,98298.28
2022-12-14T11:13:12.993Z,98293.16
2022-12-14T11:15:45.717Z,98284.63
2022-12-14T11:18:15.667Z,98284.63
2022-12-14T11:20:56.445Z,98282.03
2022-12-14T11:23:35.934Z,98282.81
2022-12-14T11:26:07.065Z,98279.22
2022-12-14T11:28:41.513Z,98275.84
2022-12-14T11:31:13.209Z,98278.53
2022-12-14T11:33:43.449Z,98270.91
2022-12-14T11:36:24.037Z,98265.00
2022-12-14T11:39:01.816Z,98268.50
2022-12-14T11:41:40.870Z,98270.28
2022-12-14T11:44:16.767Z,98273.91
2022-12-14T11:46:58.902Z,98273.31
2022-12-14T11:49:35.347Z,98282.97
2022-12-14T11:52:09.609Z,98271.84
2022-12-14T11:54:39.465Z,98269.31
2022-12-14T11:57:12.337Z,98265.88
2022-12-14T11:59:45.813Z,98261.53
2022-12-14T12:02:22.074Z,98269.22
2022-12-14T12:04:57.056Z,98269.19
2022-12-14T12:07:29.724Z,98269.16
2022-12-14T12:10:02.260Z,98266.59
2022-12-14T12:12:29.130Z,98264.00
2022-12-14T12:14:57.042Z,98269.97
2022-12-14T12:17:39.402Z,98263.16
2022-12-14T12:20:19.899Z,98257.25
2022-12-14T12:22:51.247Z,98255.69
2022-12-14T12:25:27.598Z,98238.69
2022-12-14T12:28:28.360Z,98245.81
2022-12-14T12:31:07.492Z,98241.66
2022-12-14T12:33:46.716Z,98240.97
2022-12-14T12:36:23.548Z,98242.91
2022-12-14T12:39:07.927Z,98238.66
2022-12-14T12:41:47.461Z,98236.16
2022-12-14T12:44:49.787Z,98239.66
2022-12-14T12:47:29.889Z,98231.94
2022-12-14T12:50:06.506Z,98235.41
2022-12-14T12:52:50.173Z,98233.72
2022-12-14T12:55:19.815Z,98223.44
2022-12-14T12:57:51.052Z,98210.53
2022-12-14T13:00:25.387Z,98214.06
2022-12-14T13:03:02.348Z,98213.25
2022-12-14T13:05:47.668Z,98214.13
2022-12-14T13:08:21.717Z,98209.84
2022-12-14T13:13:44.221Z,98196.97
2022-12-14T13:16:20.406Z,98196.13
2022-12-14T13:19:04.916Z,98197.00
2022-12-14T13:21:49.693Z,98181.53
2022-12-14T13:24:20.103Z,98178.94
2022-12-14T13:27:25.544Z,98175.50
2022-12-14T13:30:00.384Z,98186.72
2022-12-14T13:32:48.125Z,98185.00
2022-12-14T13:35:46.482Z,98175.53
2022-12-14T13:38:33.632Z,98168.66
2022-12-14T13:41:27.162Z,98173.81
2022-12-14T13:44:31.289Z,98166.94
2022-12-14T13:47:06.528Z,98173.81
2022-12-14T13:49:33.673Z,98169.50
2022-12-14T13:52:01.229Z,98171.19
2022-12-14T13:54:37.578Z,98168.59
2022-12-14T13:57:09.898Z,98159.16
2022-12-14T13:59:48.527Z,98154.84
2022-12-14T14:02:28.003Z,98147.13
2022-12-14T14:05:18.745Z,98150.59
2022-12-14T14:07:57.910Z,98141.19
2022-12-14T14:10:29.569Z,98136.94
2022-12-14T14:12:56.680Z,98140.38
2022-12-14T14:16:26.371Z,98142.13
2022-12-14T14:18:52.236Z,98143.00
2022-12-14T14:21:20.162Z,98132.69
2022-12-14T14:24:01.410Z,98124.09
2022-12-14T14:26:29.824Z,98124.09
2022-12-14T14:29:10.889Z,98117.22
2022-12-14T14:31:51.797Z,98113.78
2022-12-14T14:34:41.913Z,98110.31
2022-12-14T14:37:20.683Z,98104.31
2022-12-14T14:40:33.262Z,98104.34
2022-12-14T14:43:08.861Z,98096.56
2022-12-14T14:45:58.279Z,98086.25
2022-12-14T14:48:30.629Z,98081.94
2022-12-14T14:51:14.592Z,98074.22
2022-12-14T14:53:41.846Z,98069.91
2022-12-14T14:56:30.894Z,98065.63
2022-12-14T14:59:16.041Z,98066.50
2022-12-14T15:01:50.833Z,98063.06
2022-12-14T15:04:24.761Z,98062.22
2022-12-14T15:06:58.076Z,98056.22
2022-12-14T15:09:33.764Z,98053.63
2022-12-14T15:12:08.007Z,98053.63
2022-12-14T15:14:48.508Z,98051.94
2022-12-14T15:17:18.844Z,98038.22
2022-12-14T15:19:49.851Z,98033.88
2022-12-14T15:22:22.771Z,98023.56
2022-12-14T15:24:53.095Z,98020.97
2022-12-14T15:27:22.768Z,98012.34
2022-12-14T15:29:51.027Z,98012.25
2022-12-14T15:32:22.842Z,98006.16
2022-12-14T15:34:56.087Z,97994.06
2022-12-14T15:37:53.520Z,97995.72
2022-12-14T15:40:30.545Z,97998.28
2022-12-14T15:43:15.237Z,97989.63
2022-12-14T15:45:44.590Z,97989.63
2022-12-14T15:48:21.913Z,97993.97
2022-12-14T15:50:54.423Z,97993.09
2022-12-14T15:53:52.877Z,97969.88
2022-12-14T15:56:30.063Z,97954.41
2022-12-14T15:58:59.973Z,97954.44
2022-12-14T16:01:38.028Z,97949.31
2022-12-14T16:04:09.899Z,97944.22
2022-12-14T16:06:42.090Z,97939.03
2022-12-14T16:09:26.566Z,97928.72
2022-12-14T16:12:04.109Z,97936.50
2022-12-14T16:14:44.261Z,97918.44
2022-12-14T16:17:33.874Z,97916.75
2022-12-14T16:20:09.036Z,97915.88
2022-12-14T16:22:39.983Z,97905.59
2022-12-14T16:25:10.000Z,97897.84
2022-12-14T16:27:42.756Z,97882.38
2022-12-14T16:30:19.222Z,97879.78
2022-12-14T16:32:50.114Z,97866.91
2022-12-14T16:35:19.400Z,97863.47
2022-12-14T16:37:51.228Z,97866.06
2022-12-14T16:40:35.061Z,97866.94
2022-12-14T16:43:04.593Z,97862.63
2022-12-14T16:45:45.271Z,97861.78
2022-12-14T16:48:22.194Z,97854.88
2022-12-14T16:51:02.902Z,97843.69
2022-12-14T16:53:34.991Z,97833.34
2022-12-14T16:56:04.453Z,97825.63
2022-12-14T16:58:31.264Z,97821.34
2022-12-14T17:01:06.155Z,97816.19
2022-12-14T17:03:34.124Z,97813.59
2022-12-14T17:06:07.070Z,97813.63
2022-12-14T17:08:34.654Z,97810.16
2022-12-14T17:11:02.411Z,97817.88
2022-12-14T17:13:29.855Z,97824.69
2022-12-14T17:16:06.122Z,97815.25
2022-12-14T17:18:37.737Z,97822.94
2022-12-14T17:21:06.141Z,97820.41
2022-12-14T17:23:35.593Z,97822.09
2022-12-14T17:26:02.741Z,97829.88
2022-12-14T17:28:31.599Z,97820.41
2022-12-14T17:30:59.803Z,97817.78
2022-12-14T17:33:28.486Z,97818.63
2022-12-14T17:35:56.024Z,97814.31
2022-12-14T17:38:23.276Z,97803.97
2022-12-14T17:40:51.765Z,97796.19
2022-12-14T17:43:21.057Z,97791.03
2022-12-14T17:45:48.264Z,97795.34
2022-12-14T17:48:16.474Z,97784.13
2022-12-14T17:50:47.711Z,97787.53
2022-12-14T17:53:16.779Z,97788.50
2022-12-14T17:55:44.208Z,97785.88
2022-12-14T17:58:11.374Z,97798.78
2022-12-14T18:00:58.619Z,97801.41
2022-12-14T18:03:26.277Z,97797.94
2022-12-14T18:05:53.609Z,97786.75
2022-12-14T18:08:22.238Z,97789.34
2022-12-14T18:11:15.216Z,97784.22
2022-12-14T18:13:43.069Z,97774.75
2022-12-14T18:16:15.925Z,97770.44
2022-12-14T18:18:43.406Z,97760.13
2022-12-14T18:21:22.424Z,97755.84
2022-12-14T18:23:50.565Z,97748.97
2022-12-14T18:26:22.319Z,97754.16
2022-12-14T18:28:50.729Z,97753.31
2022-12-14T18:31:24.007Z,97762.78
2022-12-14T18:33:50.960Z,97760.22
2022-12-14T18:36:21.510Z,97759.31
2022-12-14T18:38:51.971Z,97755.88
2022-12-14T18:41:23.185Z,97766.19
2022-12-14T18:43:50.577Z,97769.59
2022-12-14T18:46:18.116Z,97773.91
2022-12-14T18:48:45.188Z,97773.03
2022-12-14T18:51:15.545Z,97765.28
2022-12-14T18:53:43.255Z,97760.06
2022-12-14T18:56:12.400Z,97754.03
2022-12-14T18:58:42.070Z,97747.03
2022-12-14T19:01:15.092Z,97742.72
2022-12-14T19:03:43.551Z,97739.28
2022-12-14T19:09:09.280Z,97735.84
2022-12-14T19:11:41.852Z,97734.13
2022-12-14T19:14:09.702Z,97733.22
2022-12-14T19:16:37.068Z,97720.31
2022-12-14T19:19:03.940Z,97731.53
2022-12-14T19:21:31.648Z,97728.06
2022-12-14T19:24:01.825Z,97733.19
2022-12-14T19:26:29.339Z,97736.59
2022-12-14T19:28:56.910Z,97725.41
2022-12-14T19:31:24.014Z,97717.63
2022-12-14T19:33:50.907Z,97709.88
2022-12-14T19:36:18.022Z,97703.91
2022-12-14T19:38:45.076Z,97698.75
2022-12-14T19:41:20.168Z,97685.84
2022-12-14T19:43:47.570Z,97685.88
2022-12-14T19:46:16.439Z,97671.28
2022-12-14T19:48:44.459Z,97666.97
2022-12-14T19:51:13.119Z,97671.28
2022-12-14T19:53:42.648Z,97667.94
2022-12-14T19:56:10.949Z,97650.78
2022-12-14T19:58:37.732Z,97650.84
2022-12-14T20:01:09.086Z,97648.25
2022-12-14T20:03:37.405Z,97659.44
2022-12-14T20:06:06.157Z,97640.59
2022-12-14T20:08:34.183Z,97644.84
2022-12-14T20:11:06.327Z,97633.66
2022-12-14T20:13:33.909Z,97637.09
2022-12-14T20:16:02.181Z,97637.09
2022-12-14T20:18:30.765Z,97631.03
2022-12-14T20:21:05.631Z,97628.47
2022-12-14T20:23:35.371Z,97616.44
2022-12-14T20:26:04.530Z,97607.81
2022-12-14T20:28:31.676Z,97599.22
2022-12-14T20:30:58.958Z,97610.34
2022-12-14T20:33:30.117Z,97601.78
2022-12-14T20:35:58.220Z,97591.44
2022-12-14T20:38:25.573Z,97587.16
2022-12-14T20:40:52.896Z,97574.19
2022-12-14T20:43:19.939Z,97591.47
2022-12-14T20:45:47.186Z,97587.22
2022-12-14T20:48:14.011Z,97584.66
2022-12-14T20:50:43.126Z,97569.22
2022-12-14T20:53:09.980Z,97562.44
2022-12-14T20:55:37.358Z,97570.22
2022-12-14T20:58:04.163Z,97566.78
2022-12-14T21:00:31.404Z,97567.63
2022-12-14T21:02:58.467Z,97559.00
2022-12-14T21:05:25.852Z,97553.00
2022-12-14T21:07:52.637Z,97551.31
2022-12-14T21:10:19.802Z,97538.44
2022-12-14T21:12:49.865Z,97547.03
2022-12-14T21:15:17.062Z,97541.06
2022-12-14T21:17:43.804Z,97544.50
2022-12-14T21:20:12.772Z,97539.41
2022-12-14T21:22:39.591Z,97530.78
2022-12-14T21:25:07.746Z,97525.63
2022-12-14T21:27:38.481Z,97517.03
2022-12-14T21:30:08.438Z,97511.06
2022-12-14T21:32:37.243Z,97514.47
2022-12-14T21:35:04.909Z,97511.03
2022-12-14T21:37:31.712Z,97499.88
2022-12-14T21:39:58.818Z,97501.56
2022-12-14T21:42:26.608Z,97498.09
2022-12-14T21:44:54.370Z,97502.38
2022-12-14T21:47:24.364Z,97492.06
2022-12-14T21:49:51.463Z,97487.81
2022-12-14T21:52:20.813Z,97483.44
2022-12-14T21:54:47.916Z,97483.44
2022-12-14T21:57:34.902Z,97480.84
2022-12-14T22:00:02.602Z,97467.94
2022-12-14T22:02:29.834Z,97468.84
2022-12-14T22:04:57.305Z,97462.81
2022-12-14T22:07:29.516Z,97458.50
2022-12-14T22:09:56.650Z,97455.00
2022-12-14T22:12:23.505Z,97453.25
2022-12-14T22:14:51.088Z,97441.19
2022-12-14T22:17:18.153Z,97444.69
2022-12-14T22:19:45.412Z,97432.59
2022-12-14T22:22:16.802Z,97429.19
2022-12-14T22:24:47.440Z,97427.50
2022-12-14T22:27:15.016Z,97421.44
2022-12-14T22:29:42.141Z,97427.44
2022-12-14T22:32:11.785Z,97421.34
2022-12-14T22:34:39.057Z,97417.88
2022-12-14T22:37:06.119Z,97416.13
2022-12-14T22:39:33.368Z,97422.13
2022-12-14T22:42:00.410Z,97420.38
2022-12-14T22:44:27.511Z,97435.00
2022-12-14T22:46:54.353Z,97446.13
2022-12-14T22:49:21.618Z,97438.34
2022-12-14T22:51:48.426Z,97437.50
2022-12-14T22:54:20.944Z,97434.03
2022-12-14T22:56:56.018Z,97426.28
2022-12-14T22:59:34.030Z,97434.88
2022-12-14T23:02:01.128Z,97434.91
2022-12-14T23:04:28.549Z,97441.75
2022-12-14T23:06:55.643Z,97440.91
2022-12-14T23:09:41.396Z,97438.31
2022-12-14T23:12:26.528Z,97438.31
2022-12-14T23:15:12.268Z,97433.13
2022-12-14T23:17:57.490Z,97437.34
2022-12-14T23:20:43.389Z,97435.63
2022-12-14T23:23:29.266Z,97431.34
2022-12-14T23:26:20.323Z,97426.16
2022-12-14T23:29:05.606Z,97405.53
2022-12-14T23:31:51.893Z,97423.59
2022-12-14T23:34:37.264Z,97415.00
2022-12-14T23:37:23.235Z,97424.47
2022-12-14T23:40:08.661Z,97426.19
2022-12-14T23:42:54.084Z,97413.28
2022-12-14T23:45:39.613Z,97415.03
2022-12-14T23:48:25.607Z,97417.63
2022-12-14T23:51:10.763Z,97426.28
2022-12-14T23:53:56.427Z,97426.28
2022-12-14T23:56:41.697Z,97429.69
2022-12-14T23:59:31.921Z,97423.66
